createdAt,value
2022-09-20T00:00:18.030Z,180
2022-09-20T00:05:17.982Z,180
2022-09-20T00:10:17.792Z,180
2022-09-20T00:15:18.236Z,180
2022-09-20T00:20:17.826Z,158
2022-09-20T00:25:17.790Z,158
2022-09-20T00:30:18.535Z,158
2022-09-20T00:35:17.977Z,158
2022-09-20T00:40:17.936Z,158
2022-09-20T00:45:18.156Z,180
2022-09-20T00:50:17.909Z,180
2022-09-20T00:55:17.887Z,180
2022-09-20T01:00:18.896Z,180
2022-09-20T01:05:18.010Z,180
2022-09-20T01:10:18.134Z,180
2022-09-20T01:15:17.968Z,180
2022-09-20T01:20:17.885Z,180
2022-09-20T01:25:18.180Z,180
2022-09-20T01:30:18.024Z,180
2022-09-20T01:35:18.209Z,180
2022-09-20T01:40:18.045Z,180
2022-09-20T01:45:18.227Z,180
2022-09-20T01:50:17.924Z,180
2022-09-20T01:55:18.060Z,180
2022-09-20T02:00:18.174Z,202
2022-09-20T02:05:18.185Z,225
2022-09-20T02:10:18.229Z,270
2022-09-20T02:15:18.239Z,292
2022-09-20T02:20:18.345Z,292
2022-09-20T02:25:18.180Z,270
2022-09-20T02:30:18.235Z,248
2022-09-20T02:35:18.309Z,248
2022-09-20T02:40:18.081Z,202
2022-09-20T02:45:18.395Z,202
2022-09-20T02:50:18.080Z,225
2022-09-20T02:55:18.149Z,225
2022-09-20T03:00:19.865Z,225
2022-09-20T03:05:18.113Z,202
2022-09-20T03:10:18.393Z,202
2022-09-20T03:15:16.203Z,202
2022-09-20T03:20:16.410Z,202
2022-09-20T03:25:16.375Z,202
2022-09-20T03:30:16.468Z,248
2022-09-20T03:35:16.194Z,292
2022-09-20T03:40:16.409Z,315
2022-09-20T03:45:16.759Z,0
2022-09-20T03:50:16.350Z,0
2022-09-20T03:55:16.502Z,0
2022-09-20T04:00:17.506Z,0
2022-09-20T04:05:17.361Z,0
2022-09-20T04:10:17.338Z,0
2022-09-20T04:15:17.462Z,338
2022-09-20T04:20:17.958Z,338
2022-09-20T04:25:17.450Z,338
2022-09-20T04:30:17.436Z,338
2022-09-20T04:35:17.472Z,338
2022-09-20T04:40:17.555Z,338
2022-09-20T04:45:17.523Z,338
2022-09-20T04:50:17.558Z,338
2022-09-20T04:55:17.555Z,338
2022-09-20T05:00:18.543Z,338
2022-09-20T05:05:17.283Z,338
2022-09-20T05:10:17.517Z,338
2022-09-20T05:15:17.499Z,338
2022-09-20T05:20:17.427Z,338
2022-09-20T05:25:17.389Z,338
2022-09-20T05:30:17.831Z,338
2022-09-20T05:35:17.569Z,338
2022-09-20T05:40:17.632Z,338
2022-09-20T05:45:17.620Z,315
2022-09-20T05:50:17.651Z,338
2022-09-20T05:55:17.389Z,338
2022-09-20T06:00:17.704Z,338
2022-09-20T06:05:17.524Z,338
2022-09-20T06:10:17.783Z,338
2022-09-20T06:15:17.725Z,338
2022-09-20T06:20:17.679Z,338
2022-09-20T06:25:17.573Z,338
2022-09-20T06:30:17.937Z,338
2022-09-20T06:35:17.519Z,338
2022-09-20T06:40:17.801Z,338
2022-09-20T06:45:18.357Z,338
2022-09-20T06:50:17.802Z,0
2022-09-20T06:55:17.763Z,0
2022-09-20T07:00:19.662Z,338
2022-09-20T07:05:17.612Z,338
2022-09-20T07:10:17.769Z,338
2022-09-20T07:15:17.743Z,338
2022-09-20T07:20:21.558Z,338
2022-09-20T07:25:17.698Z,338
2022-09-20T07:30:18.218Z,338
2022-09-20T07:35:17.659Z,338
2022-09-20T07:40:19.472Z,0
2022-09-20T07:45:17.948Z,0
2022-09-20T07:50:17.690Z,0
2022-09-20T07:55:17.712Z,0
2022-09-20T08:00:18.185Z,0
2022-09-20T08:05:17.763Z,22
2022-09-20T08:10:17.763Z,0
2022-09-20T08:15:17.971Z,0
2022-09-20T08:20:17.818Z,0
2022-09-20T08:25:18.242Z,0
2022-09-20T08:30:17.898Z,0
2022-09-20T08:35:17.906Z,0
2022-09-20T08:40:17.936Z,0
2022-09-20T08:45:53.727Z,0
2022-09-20T08:50:18.075Z,0
2022-09-20T08:55:17.985Z,0
2022-09-20T09:00:19.498Z,0
2022-09-20T09:05:18.473Z,0
2022-09-20T09:10:19.222Z,22
2022-09-20T09:15:18.162Z,22
2022-09-20T09:20:18.027Z,22
2022-09-20T09:25:18.085Z,22
2022-09-20T09:30:18.004Z,22
2022-09-20T09:35:18.377Z,0
2022-09-20T09:40:18.072Z,22
2022-09-20T09:45:18.101Z,22
2022-09-20T09:50:18.125Z,0
2022-09-20T09:55:18.086Z,22
2022-09-20T10:00:21.870Z,22
2022-09-20T10:05:18.173Z,22
2022-09-20T10:10:18.346Z,0
2022-09-20T10:15:18.297Z,22
2022-09-20T10:20:18.026Z,22
2022-09-20T10:25:18.224Z,22
2022-09-20T10:30:18.485Z,0
2022-09-20T10:35:18.051Z,22
2022-09-20T10:40:18.139Z,22
2022-09-20T10:45:43.906Z,0
2022-09-20T10:50:18.170Z,22
2022-09-20T10:55:18.148Z,22
2022-09-20T11:00:19.068Z,22
2022-09-20T11:05:18.055Z,45
2022-09-20T11:10:18.139Z,45
2022-09-20T11:15:18.488Z,45
2022-09-20T11:20:18.312Z,45
2022-09-20T11:25:21.663Z,45
2022-09-20T11:30:16.417Z,45
2022-09-20T11:35:16.273Z,45
2022-09-20T11:40:16.330Z,45
2022-09-20T11:45:16.651Z,45
2022-09-20T11:50:16.238Z,45
2022-09-20T11:55:16.606Z,45
2022-09-20T12:00:16.391Z,45
2022-09-20T12:05:16.344Z,45
2022-09-20T12:10:16.322Z,45
2022-09-20T12:15:16.575Z,45
2022-09-20T12:20:19.276Z,45
2022-09-20T12:25:16.507Z,22
2022-09-20T12:30:16.641Z,22
2022-09-20T12:35:17.532Z,22
2022-09-20T12:40:16.393Z,22
2022-09-20T12:45:16.520Z,45
2022-09-20T12:50:16.348Z,22
2022-09-20T12:55:16.501Z,45
2022-09-20T13:00:18.301Z,45
2022-09-20T13:05:16.796Z,45
2022-09-20T13:10:16.416Z,45
2022-09-20T13:15:16.505Z,45
2022-09-20T13:20:16.398Z,22
2022-09-20T13:25:16.550Z,45
2022-09-20T13:30:16.806Z,45
2022-09-20T13:35:16.631Z,45
2022-09-20T13:40:16.680Z,45
2022-09-20T13:45:16.815Z,68
2022-09-20T13:50:16.651Z,45
2022-09-20T13:55:16.419Z,45
2022-09-20T14:00:16.830Z,45
2022-09-20T14:05:16.652Z,45
2022-09-20T14:10:16.650Z,45
2022-09-20T14:15:16.997Z,45
2022-09-20T14:20:16.653Z,45
2022-09-20T14:25:16.551Z,68
2022-09-20T14:30:16.910Z,45
2022-09-20T14:35:16.737Z,22
2022-09-20T14:40:16.842Z,45
2022-09-20T14:45:16.754Z,45
2022-09-20T14:50:16.737Z,45
2022-09-20T14:55:16.642Z,45
2022-09-20T15:00:17.952Z,45
2022-09-20T15:05:16.594Z,45
2022-09-20T15:10:16.627Z,45
2022-09-20T15:15:16.808Z,45
2022-09-20T15:20:18.675Z,45
2022-09-20T15:25:16.815Z,45
2022-09-20T15:30:17.227Z,45
2022-09-20T15:35:16.675Z,45
2022-09-20T15:40:16.905Z,22
2022-09-20T15:45:16.826Z,45
2022-09-20T15:50:16.887Z,45
2022-09-20T15:55:16.708Z,45
2022-09-20T16:00:17.086Z,45
2022-09-20T16:05:16.964Z,45
2022-09-20T16:10:16.880Z,45
2022-09-20T16:15:16.857Z,45
2022-09-20T16:20:16.782Z,22
2022-09-20T16:25:16.978Z,45
2022-09-20T16:30:17.116Z,45
2022-09-20T16:35:16.864Z,45
2022-09-20T16:40:17.187Z,45
2022-09-20T16:45:17.130Z,45
2022-09-20T16:50:16.845Z,45
2022-09-20T16:55:16.828Z,45
2022-09-20T17:00:18.517Z,45
2022-09-20T17:05:17.029Z,45
2022-09-20T17:10:17.058Z,45
2022-09-20T17:15:17.438Z,45
2022-09-20T17:20:16.984Z,45
2022-09-20T17:25:16.991Z,45
2022-09-20T17:30:17.057Z,45
2022-09-20T17:35:17.139Z,68
2022-09-20T17:40:16.993Z,45
2022-09-20T17:45:17.097Z,45
2022-09-20T17:50:16.978Z,45
2022-09-20T17:55:17.088Z,45
2022-09-20T18:00:18.515Z,45
2022-09-20T18:05:17.192Z,45
2022-09-20T18:10:17.002Z,45
2022-09-20T18:15:17.061Z,68
2022-09-20T18:20:17.207Z,45
2022-09-20T18:25:16.997Z,45
2022-09-20T18:30:17.310Z,45
2022-09-20T18:35:17.070Z,45
2022-09-20T18:40:17.336Z,45
2022-09-20T18:45:17.042Z,45
2022-09-20T18:50:17.273Z,45
2022-09-20T18:55:17.186Z,68
2022-09-20T19:00:18.525Z,68
2022-09-20T19:05:17.324Z,45
2022-09-20T19:10:17.105Z,45
2022-09-20T19:15:17.775Z,45
2022-09-20T19:20:17.182Z,45
2022-09-20T19:25:17.145Z,45
2022-09-20T19:30:17.279Z,45
2022-09-20T19:35:17.132Z,68
2022-09-20T19:40:17.244Z,68
2022-09-20T19:45:17.566Z,68
2022-09-20T19:50:17.160Z,68
2022-09-20T19:55:17.311Z,68
2022-09-20T20:00:17.346Z,68
2022-09-20T20:05:17.384Z,68
2022-09-20T20:10:17.224Z,45
2022-09-20T20:15:17.388Z,45
2022-09-20T20:20:17.581Z,68
2022-09-20T20:25:17.541Z,45
2022-09-20T20:30:17.735Z,45
2022-09-20T20:35:17.410Z,68
2022-09-20T20:40:17.338Z,45
2022-09-20T20:45:17.536Z,45
2022-09-20T20:50:17.324Z,45
2022-09-20T20:55:17.324Z,45
2022-09-20T21:00:18.905Z,68
2022-09-20T21:05:17.413Z,68
2022-09-20T21:10:17.397Z,68
2022-09-20T21:15:17.538Z,45
2022-09-20T21:20:17.437Z,68
2022-09-20T21:25:17.388Z,22
2022-09-20T21:30:17.741Z,22
2022-09-20T21:35:17.386Z,45
2022-09-20T21:40:17.496Z,68
2022-09-20T21:45:17.651Z,45
2022-09-20T21:50:17.478Z,45
2022-09-20T21:55:17.313Z,68
2022-09-20T22:00:17.421Z,45
2022-09-20T22:05:17.592Z,45
2022-09-20T22:10:17.940Z,68
2022-09-20T22:15:17.820Z,68
2022-09-20T22:20:17.805Z,68
2022-09-20T22:25:17.690Z,68
2022-09-20T22:30:17.633Z,68
2022-09-20T22:35:17.457Z,68
2022-09-20T22:40:17.734Z,68
2022-09-20T22:45:17.614Z,45
2022-09-20T22:50:17.618Z,68
2022-09-20T22:55:17.573Z,68
2022-09-20T23:00:18.775Z,68
2022-09-20T23:05:17.630Z,68
2022-09-20T23:10:17.598Z,68
2022-09-20T23:15:18.100Z,68
2022-09-20T23:20:17.590Z,68
2022-09-20T23:25:17.636Z,68
2022-09-20T23:30:17.816Z,68
2022-09-20T23:35:17.742Z,68
2022-09-20T23:40:17.728Z,68
2022-09-20T23:45:17.785Z,68
2022-09-20T23:50:17.821Z,68
2022-09-20T23:55:17.810Z,68
